sensor_id;sensor_type;location;lat;lon;timestamp;P1;durP1;ratioP1;P2;durP2;ratioP2
24143;SDS011;12307;50.828;6.080;2023-06-24T00:02:02;3.20;;;2.90;;
24143;SDS011;12307;50.828;6.080;2023-06-24T00:04:28;3.00;;;2.80;;
24143;SDS011;12307;50.828;6.080;2023-06-24T00:06:54;2.97;;;2.78;;
24143;SDS011;12307;50.828;6.080;2023-06-24T00:09:21;3.25;;;2.95;;
24143;SDS011;12307;50.828;6.080;2023-06-24T00:11:47;3.22;;;3.00;;
24143;SDS011;12307;50.828;6.080;2023-06-24T00:14:14;2.75;;;2.55;;
24143;SDS011;12307;50.828;6.080;2023-06-24T00:16:40;3.30;;;3.00;;
24143;SDS011;12307;50.828;6.080;2023-06-24T00:19:06;3.08;;;2.85;;
24143;SDS011;12307;50.828;6.080;2023-06-24T00:21:33;3.38;;;3.08;;
24143;SDS011;12307;50.828;6.080;2023-06-24T00:23:59;2.92;;;2.72;;
24143;SDS011;12307;50.828;6.080;2023-06-24T00:26:27;2.85;;;2.65;;
24143;SDS011;12307;50.828;6.080;2023-06-24T00:28:53;3.22;;;2.90;;
24143;SDS011;12307;50.828;6.080;2023-06-24T00:31:20;3.13;;;2.83;;
24143;SDS011;12307;50.828;6.080;2023-06-24T00:33:46;3.03;;;2.75;;
24143;SDS011;12307;50.828;6.080;2023-06-24T00:36:12;2.72;;;2.53;;
24143;SDS011;12307;50.828;6.080;2023-06-24T00:38:37;3.33;;;3.03;;
24143;SDS011;12307;50.828;6.080;2023-06-24T00:41:03;3.22;;;2.92;;
24143;SDS011;12307;50.828;6.080;2023-06-24T00:43:29;3.00;;;2.78;;
24143;SDS011;12307;50.828;6.080;2023-06-24T00:45:55;3.28;;;2.97;;
24143;SDS011;12307;50.828;6.080;2023-06-24T00:48:22;3.22;;;2.92;;
24143;SDS011;12307;50.828;6.080;2023-06-24T00:50:49;2.72;;;2.53;;
24143;SDS011;12307;50.828;6.080;2023-06-24T00:53:15;2.83;;;2.63;;
24143;SDS011;12307;50.828;6.080;2023-06-24T00:55:41;3.08;;;2.83;;
24143;SDS011;12307;50.828;6.080;2023-06-24T00:58:06;3.05;;;2.85;;
24143;SDS011;12307;50.828;6.080;2023-06-24T01:00:32;2.83;;;2.63;;
24143;SDS011;12307;50.828;6.080;2023-06-24T01:02:59;3.05;;;2.80;;
24143;SDS011;12307;50.828;6.080;2023-06-24T01:05:26;2.70;;;2.50;;
24143;SDS011;12307;50.828;6.080;2023-06-24T01:07:54;2.90;;;2.70;;
24143;SDS011;12307;50.828;6.080;2023-06-24T01:10:21;3.17;;;2.88;;
24143;SDS011;12307;50.828;6.080;2023-06-24T01:12:48;3.08;;;2.80;;
24143;SDS011;12307;50.828;6.080;2023-06-24T01:15:14;2.75;;;2.55;;
24143;SDS011;12307;50.828;6.080;2023-06-24T01:17:43;2.92;;;2.72;;
24143;SDS011;12307;50.828;6.080;2023-06-24T01:20:15;3.10;;;2.80;;
24143;SDS011;12307;50.828;6.080;2023-06-24T01:22:54;3.58;;;3.28;;
24143;SDS011;12307;50.828;6.080;2023-06-24T01:25:39;3.15;;;2.90;;
24143;SDS011;12307;50.828;6.080;2023-06-24T01:28:30;2.90;;;2.70;;
24143;SDS011;12307;50.828;6.080;2023-06-24T01:31:19;2.85;;;2.65;;
24143;SDS011;12307;50.828;6.080;2023-06-24T01:34:03;3.30;;;3.00;;
24143;SDS011;12307;50.828;6.080;2023-06-24T01:36:37;2.90;;;2.70;;
24143;SDS011;12307;50.828;6.080;2023-06-24T01:39:06;2.72;;;2.53;;
24143;SDS011;12307;50.828;6.080;2023-06-24T01:41:34;3.05;;;2.83;;
24143;SDS011;12307;50.828;6.080;2023-06-24T01:44:05;3.33;;;3.03;;
24143;SDS011;12307;50.828;6.080;2023-06-24T01:46:36;2.97;;;2.72;;
24143;SDS011;12307;50.828;6.080;2023-06-24T01:49:02;3.03;;;2.83;;
24143;SDS011;12307;50.828;6.080;2023-06-24T01:51:32;2.90;;;2.70;;
24143;SDS011;12307;50.828;6.080;2023-06-24T01:54:01;2.80;;;2.53;;
24143;SDS011;12307;50.828;6.080;2023-06-24T01:56:29;2.83;;;2.63;;
24143;SDS011;12307;50.828;6.080;2023-06-24T01:58:58;3.25;;;2.92;;
24143;SDS011;12307;50.828;6.080;2023-06-24T02:01:26;3.30;;;3.00;;
24143;SDS011;12307;50.828;6.080;2023-06-24T02:03:54;3.00;;;2.80;;
24143;SDS011;12307;50.828;6.080;2023-06-24T02:06:20;2.95;;;2.72;;
24143;SDS011;12307;50.828;6.080;2023-06-24T02:08:49;3.17;;;2.88;;
24143;SDS011;12307;50.828;6.080;2023-06-24T02:11:17;2.75;;;2.55;;
24143;SDS011;12307;50.828;6.080;2023-06-24T02:13:44;3.35;;;3.05;;
24143;SDS011;12307;50.828;6.080;2023-06-24T02:16:10;3.10;;;2.80;;
24143;SDS011;12307;50.828;6.080;2023-06-24T02:18:37;3.22;;;2.92;;
24143;SDS011;12307;50.828;6.080;2023-06-24T02:21:09;2.90;;;2.70;;
24143;SDS011;12307;50.828;6.080;2023-06-24T02:23:36;3.25;;;2.95;;
24143;SDS011;12307;50.828;6.080;2023-06-24T02:26:03;2.70;;;2.50;;
24143;SDS011;12307;50.828;6.080;2023-06-24T02:28:31;3.30;;;3.00;;
24143;SDS011;12307;50.828;6.080;2023-06-24T02:30:58;2.72;;;2.53;;
24143;SDS011;12307;50.828;6.080;2023-06-24T02:33:24;2.97;;;2.78;;
24143;SDS011;12307;50.828;6.080;2023-06-24T02:35:51;3.10;;;2.88;;
24143;SDS011;12307;50.828;6.080;2023-06-24T02:38:18;2.85;;;2.63;;
24143;SDS011;12307;50.828;6.080;2023-06-24T02:40:44;3.20;;;2.90;;
24143;SDS011;12307;50.828;6.080;2023-06-24T02:43:10;2.90;;;2.70;;
24143;SDS011;12307;50.828;6.080;2023-06-24T02:45:36;2.80;;;2.60;;
24143;SDS011;12307;50.828;6.080;2023-06-24T02:48:02;2.67;;;2.47;;
24143;SDS011;12307;50.828;6.080;2023-06-24T02:50:30;3.17;;;2.88;;
24143;SDS011;12307;50.828;6.080;2023-06-24T02:52:56;3.00;;;2.80;;
24143;SDS011;12307;50.828;6.080;2023-06-24T02:55:24;3.30;;;3.00;;
24143;SDS011;12307;50.828;6.080;2023-06-24T02:57:50;3.30;;;3.03;;
24143;SDS011;12307;50.828;6.080;2023-06-24T03:00:17;3.17;;;2.95;;
24143;SDS011;12307;50.828;6.080;2023-06-24T03:02:43;2.80;;;2.60;;
24143;SDS011;12307;50.828;6.080;2023-06-24T03:05:10;2.85;;;2.65;;
24143;SDS011;12307;50.828;6.080;2023-06-24T03:07:36;2.88;;;2.67;;
24143;SDS011;12307;50.828;6.080;2023-06-24T03:10:03;3.08;;;2.78;;
24143;SDS011;12307;50.828;6.080;2023-06-24T03:12:32;2.90;;;2.70;;
24143;SDS011;12307;50.828;6.080;2023-06-24T03:14:57;2.95;;;2.67;;
24143;SDS011;12307;50.828;6.080;2023-06-24T03:17:23;3.10;;;2.80;;
24143;SDS011;12307;50.828;6.080;2023-06-24T03:19:49;3.20;;;2.90;;
24143;SDS011;12307;50.828;6.080;2023-06-24T03:22:15;2.90;;;2.70;;
24143;SDS011;12307;50.828;6.080;2023-06-24T03:24:42;2.85;;;2.65;;
24143;SDS011;12307;50.828;6.080;2023-06-24T03:27:07;3.10;;;2.90;;
24143;SDS011;12307;50.828;6.080;2023-06-24T03:29:34;3.00;;;2.80;;
24143;SDS011;12307;50.828;6.080;2023-06-24T03:32:00;3.22;;;2.95;;
24143;SDS011;12307;50.828;6.080;2023-06-24T03:34:26;2.75;;;2.55;;
24143;SDS011;12307;50.828;6.080;2023-06-24T03:36:52;2.88;;;2.60;;
24143;SDS011;12307;50.828;6.080;2023-06-24T03:39:19;2.97;;;2.75;;
24143;SDS011;12307;50.828;6.080;2023-06-24T03:41:45;2.80;;;2.60;;
24143;SDS011;12307;50.828;6.080;2023-06-24T03:44:10;2.78;;;2.58;;
24143;SDS011;12307;50.828;6.080;2023-06-24T03:46:38;3.13;;;2.65;;
24143;SDS011;12307;50.828;6.080;2023-06-24T03:49:03;2.85;;;2.65;;
24143;SDS011;12307;50.828;6.080;2023-06-24T03:51:30;3.10;;;2.80;;
24143;SDS011;12307;50.828;6.080;2023-06-24T03:53:56;2.80;;;2.60;;
24143;SDS011;12307;50.828;6.080;2023-06-24T03:56:22;3.03;;;2.83;;
24143;SDS011;12307;50.828;6.080;2023-06-24T03:58:47;3.15;;;2.85;;
24143;SDS011;12307;50.828;6.080;2023-06-24T04:01:13;3.10;;;2.60;;
24143;SDS011;12307;50.828;6.080;2023-06-24T04:03:40;2.90;;;2.70;;
24143;SDS011;12307;50.828;6.080;2023-06-24T04:06:06;2.85;;;2.65;;
24143;SDS011;12307;50.828;6.080;2023-06-24T04:08:32;3.28;;;2.78;;
24143;SDS011;12307;50.828;6.080;2023-06-24T04:10:57;2.92;;;2.70;;
24143;SDS011;12307;50.828;6.080;2023-06-24T04:13:28;3.13;;;2.90;;
24143;SDS011;12307;50.828;6.080;2023-06-24T04:15:54;2.70;;;2.50;;
24143;SDS011;12307;50.828;6.080;2023-06-24T04:18:19;2.70;;;2.50;;
24143;SDS011;12307;50.828;6.080;2023-06-24T04:20:47;2.78;;;2.58;;
24143;SDS011;12307;50.828;6.080;2023-06-24T04:23:12;2.60;;;2.40;;
24143;SDS011;12307;50.828;6.080;2023-06-24T04:25:39;3.17;;;2.88;;
24143;SDS011;12307;50.828;6.080;2023-06-24T04:28:05;2.80;;;2.60;;
24143;SDS011;12307;50.828;6.080;2023-06-24T04:30:31;2.78;;;2.58;;
24143;SDS011;12307;50.828;6.080;2023-06-24T04:32:57;2.60;;;2.40;;
24143;SDS011;12307;50.828;6.080;2023-06-24T04:35:23;2.70;;;2.50;;
24143;SDS011;12307;50.828;6.080;2023-06-24T04:37:50;2.80;;;2.60;;
24143;SDS011;12307;50.828;6.080;2023-06-24T04:40:16;2.85;;;2.65;;
24143;SDS011;12307;50.828;6.080;2023-06-24T04:42:42;2.80;;;2.60;;
24143;SDS011;12307;50.828;6.080;2023-06-24T04:45:08;3.03;;;2.83;;
24143;SDS011;12307;50.828;6.080;2023-06-24T04:47:34;3.42;;;3.13;;
24143;SDS011;12307;50.828;6.080;2023-06-24T04:50:01;2.85;;;2.65;;
24143;SDS011;12307;50.828;6.080;2023-06-24T04:52:26;2.55;;;2.35;;
24143;SDS011;12307;50.828;6.080;2023-06-24T04:54:54;2.90;;;2.70;;
24143;SDS011;12307;50.828;6.080;2023-06-24T04:57:23;2.50;;;2.30;;
24143;SDS011;12307;50.828;6.080;2023-06-24T04:59:49;2.95;;;2.70;;
24143;SDS011;12307;50.828;6.080;2023-06-24T05:02:15;2.67;;;2.47;;
24143;SDS011;12307;50.828;6.080;2023-06-24T05:04:40;2.67;;;2.47;;
24143;SDS011;12307;50.828;6.080;2023-06-24T05:07:06;3.20;;;2.92;;
24143;SDS011;12307;50.828;6.080;2023-06-24T05:09:32;2.50;;;2.30;;
24143;SDS011;12307;50.828;6.080;2023-06-24T05:11:59;2.90;;;2.70;;
24143;SDS011;12307;50.828;6.080;2023-06-24T05:14:24;2.97;;;2.60;;
24143;SDS011;12307;50.828;6.080;2023-06-24T05:16:50;2.63;;;2.42;;
24143;SDS011;12307;50.828;6.080;2023-06-24T05:19:16;2.58;;;2.38;;
24143;SDS011;12307;50.828;6.080;2023-06-24T05:21:41;2.80;;;2.60;;
24143;SDS011;12307;50.828;6.080;2023-06-24T05:24:07;2.70;;;2.50;;
24143;SDS011;12307;50.828;6.080;2023-06-24T05:26:33;2.63;;;2.42;;
24143;SDS011;12307;50.828;6.080;2023-06-24T05:29:00;2.63;;;2.42;;
24143;SDS011;12307;50.828;6.080;2023-06-24T05:31:26;2.22;;;2.13;;
24143;SDS011;12307;50.828;6.080;2023-06-24T05:33:51;2.97;;;2.50;;
24143;SDS011;12307;50.828;6.080;2023-06-24T05:36:17;2.70;;;2.50;;
24143;SDS011;12307;50.828;6.080;2023-06-24T05:38:43;2.60;;;2.40;;
24143;SDS011;12307;50.828;6.080;2023-06-24T05:41:08;2.70;;;2.50;;
24143;SDS011;12307;50.828;6.080;2023-06-24T05:43:34;2.40;;;2.20;;
24143;SDS011;12307;50.828;6.080;2023-06-24T05:46:01;2.60;;;2.40;;
24143;SDS011;12307;50.828;6.080;2023-06-24T05:48:27;2.50;;;2.30;;
24143;SDS011;12307;50.828;6.080;2023-06-24T05:50:52;2.60;;;2.40;;
24143;SDS011;12307;50.828;6.080;2023-06-24T05:53:18;2.25;;;2.05;;
24143;SDS011;12307;50.828;6.080;2023-06-24T05:55:44;2.60;;;2.40;;
24143;SDS011;12307;50.828;6.080;2023-06-24T05:58:10;2.25;;;2.05;;
24143;SDS011;12307;50.828;6.080;2023-06-24T06:00:36;2.38;;;2.17;;
24143;SDS011;12307;50.828;6.080;2023-06-24T06:03:03;2.50;;;2.30;;
24143;SDS011;12307;50.828;6.080;2023-06-24T06:05:29;2.40;;;2.20;;
24143;SDS011;12307;50.828;6.080;2023-06-24T06:07:55;2.30;;;2.10;;
24143;SDS011;12307;50.828;6.080;2023-06-24T06:10:21;2.30;;;2.10;;
24143;SDS011;12307;50.828;6.080;2023-06-24T06:12:46;2.67;;;2.47;;
24143;SDS011;12307;50.828;6.080;2023-06-24T06:15:12;2.40;;;2.20;;
24143;SDS011;12307;50.828;6.080;2023-06-24T06:17:38;2.25;;;2.15;;
24143;SDS011;12307;50.828;6.080;2023-06-24T06:20:06;2.67;;;2.47;;
24143;SDS011;12307;50.828;6.080;2023-06-24T06:22:32;2.40;;;2.20;;
24143;SDS011;12307;50.828;6.080;2023-06-24T06:25:02;2.40;;;2.20;;
24143;SDS011;12307;50.828;6.080;2023-06-24T06:27:29;1.95;;;1.85;;
24143;SDS011;12307;50.828;6.080;2023-06-24T06:29:54;2.30;;;2.10;;
24143;SDS011;12307;50.828;6.080;2023-06-24T06:32:20;2.30;;;2.10;;
24143;SDS011;12307;50.828;6.080;2023-06-24T06:34:46;2.10;;;2.00;;
24143;SDS011;12307;50.828;6.080;2023-06-24T06:37:13;2.03;;;1.92;;
24143;SDS011;12307;50.828;6.080;2023-06-24T06:39:38;2.30;;;2.10;;
24143;SDS011;12307;50.828;6.080;2023-06-24T06:42:04;1.80;;;1.70;;
24143;SDS011;12307;50.828;6.080;2023-06-24T06:44:30;2.10;;;1.92;;
24143;SDS011;12307;50.828;6.080;2023-06-24T06:46:56;1.95;;;1.85;;
24143;SDS011;12307;50.828;6.080;2023-06-24T06:49:22;1.95;;;1.85;;
24143;SDS011;12307;50.828;6.080;2023-06-24T06:51:48;1.98;;;1.88;;
24143;SDS011;12307;50.828;6.080;2023-06-24T06:54:15;1.98;;;1.83;;
24143;SDS011;12307;50.828;6.080;2023-06-24T06:56:40;1.92;;;1.83;;
24143;SDS011;12307;50.828;6.080;2023-06-24T06:59:06;2.15;;;1.98;;
24143;SDS011;12307;50.828;6.080;2023-06-24T07:01:32;1.88;;;1.77;;
24143;SDS011;12307;50.828;6.080;2023-06-24T07:03:57;1.85;;;1.75;;
24143;SDS011;12307;50.828;6.080;2023-06-24T07:06:23;1.80;;;1.70;;
24143;SDS011;12307;50.828;6.080;2023-06-24T07:08:49;1.88;;;1.77;;
24143;SDS011;12307;50.828;6.080;2023-06-24T07:11:16;1.70;;;1.60;;
24143;SDS011;12307;50.828;6.080;2023-06-24T07:13:42;1.52;;;1.42;;
24143;SDS011;12307;50.828;6.080;2023-06-24T07:16:07;1.95;;;1.85;;
24143;SDS011;12307;50.828;6.080;2023-06-24T07:18:33;1.80;;;1.70;;
24143;SDS011;12307;50.828;6.080;2023-06-24T07:20:59;1.70;;;1.60;;
24143;SDS011;12307;50.828;6.080;2023-06-24T07:23:26;2.17;;;1.98;;
24143;SDS011;12307;50.828;6.080;2023-06-24T07:25:52;1.90;;;1.80;;
24143;SDS011;12307;50.828;6.080;2023-06-24T07:28:19;2.22;;;2.03;;
24143;SDS011;12307;50.828;6.080;2023-06-24T07:30:45;1.90;;;1.80;;
24143;SDS011;12307;50.828;6.080;2023-06-24T07:33:10;2.13;;;2.03;;
24143;SDS011;12307;50.828;6.080;2023-06-24T07:35:36;2.20;;;2.00;;
24143;SDS011;12307;50.828;6.080;2023-06-24T07:38:02;2.22;;;2.03;;
24143;SDS011;12307;50.828;6.080;2023-06-24T07:40:27;2.00;;;1.90;;
24143;SDS011;12307;50.828;6.080;2023-06-24T07:42:53;1.88;;;1.77;;
24143;SDS011;12307;50.828;6.080;2023-06-24T07:45:20;2.30;;;2.10;;
24143;SDS011;12307;50.828;6.080;2023-06-24T07:47:46;2.00;;;1.85;;
24143;SDS011;12307;50.828;6.080;2023-06-24T07:50:12;1.90;;;1.80;;
24143;SDS011;12307;50.828;6.080;2023-06-24T07:52:37;1.60;;;1.50;;
24143;SDS011;12307;50.828;6.080;2023-06-24T07:55:04;1.83;;;1.73;;
24143;SDS011;12307;50.828;6.080;2023-06-24T07:57:30;1.90;;;1.80;;
24143;SDS011;12307;50.828;6.080;2023-06-24T07:59:58;1.83;;;1.70;;
24143;SDS011;12307;50.828;6.080;2023-06-24T08:02:25;1.50;;;1.40;;
24143;SDS011;12307;50.828;6.080;2023-06-24T08:04:51;1.77;;;1.67;;
24143;SDS011;12307;50.828;6.080;2023-06-24T08:07:17;1.65;;;1.55;;
24143;SDS011;12307;50.828;6.080;2023-06-24T08:09:42;1.60;;;1.50;;
24143;SDS011;12307;50.828;6.080;2023-06-24T08:12:09;1.60;;;1.50;;
24143;SDS011;12307;50.828;6.080;2023-06-24T08:14:35;1.75;;;1.65;;
24143;SDS011;12307;50.828;6.080;2023-06-24T08:17:00;1.77;;;1.67;;
24143;SDS011;12307;50.828;6.080;2023-06-24T08:19:27;1.45;;;1.35;;
24143;SDS011;12307;50.828;6.080;2023-06-24T08:21:53;1.60;;;1.50;;
24143;SDS011;12307;50.828;6.080;2023-06-24T08:24:19;1.63;;;1.52;;
24143;SDS011;12307;50.828;6.080;2023-06-24T08:26:44;1.85;;;1.75;;
24143;SDS011;12307;50.828;6.080;2023-06-24T08:29:10;1.60;;;1.50;;
24143;SDS011;12307;50.828;6.080;2023-06-24T08:31:36;1.73;;;1.63;;
24143;SDS011;12307;50.828;6.080;2023-06-24T08:34:02;1.85;;;1.75;;
24143;SDS011;12307;50.828;6.080;2023-06-24T08:36:29;1.67;;;1.58;;
24143;SDS011;12307;50.828;6.080;2023-06-24T08:38:55;1.85;;;1.75;;
24143;SDS011;12307;50.828;6.080;2023-06-24T08:41:20;2.10;;;2.00;;
24143;SDS011;12307;50.828;6.080;2023-06-24T08:43:49;1.90;;;1.80;;
24143;SDS011;12307;50.828;6.080;2023-06-24T08:46:15;1.80;;;1.70;;
24143;SDS011;12307;50.828;6.080;2023-06-24T08:48:43;2.15;;;2.05;;
24143;SDS011;12307;50.828;6.080;2023-06-24T08:51:10;2.00;;;1.90;;
24143;SDS011;12307;50.828;6.080;2023-06-24T08:53:41;2.00;;;1.90;;
24143;SDS011;12307;50.828;6.080;2023-06-24T08:56:11;2.10;;;1.90;;
24143;SDS011;12307;50.828;6.080;2023-06-24T08:58:38;2.38;;;2.17;;
24143;SDS011;12307;50.828;6.080;2023-06-24T09:01:05;1.65;;;1.55;;
24143;SDS011;12307;50.828;6.080;2023-06-24T09:03:31;1.73;;;1.63;;
24143;SDS011;12307;50.828;6.080;2023-06-24T09:05:57;1.88;;;1.77;;
24143;SDS011;12307;50.828;6.080;2023-06-24T09:08:22;1.95;;;1.77;;
24143;SDS011;12307;50.828;6.080;2023-06-24T09:10:53;1.83;;;1.73;;
24143;SDS011;12307;50.828;6.080;2023-06-24T09:13:20;2.00;;;1.90;;
24143;SDS011;12307;50.828;6.080;2023-06-24T09:15:48;1.70;;;1.60;;
24143;SDS011;12307;50.828;6.080;2023-06-24T09:18:14;1.67;;;1.58;;
24143;SDS011;12307;50.828;6.080;2023-06-24T09:20:42;1.70;;;1.60;;
24143;SDS011;12307;50.828;6.080;2023-06-24T09:23:10;1.90;;;1.80;;
24143;SDS011;12307;50.828;6.080;2023-06-24T09:25:35;1.80;;;1.70;;
24143;SDS011;12307;50.828;6.080;2023-06-24T09:28:03;1.80;;;1.70;;
24143;SDS011;12307;50.828;6.080;2023-06-24T09:30:29;2.03;;;1.80;;
24143;SDS011;12307;50.828;6.080;2023-06-24T09:32:55;1.60;;;1.50;;
24143;SDS011;12307;50.828;6.080;2023-06-24T09:35:21;1.88;;;1.77;;
24143;SDS011;12307;50.828;6.080;2023-06-24T09:37:48;1.60;;;1.50;;
24143;SDS011;12307;50.828;6.080;2023-06-24T09:40:15;1.77;;;1.67;;
24143;SDS011;12307;50.828;6.080;2023-06-24T09:42:46;1.60;;;1.50;;
24143;SDS011;12307;50.828;6.080;2023-06-24T09:45:15;1.90;;;1.80;;
24143;SDS011;12307;50.828;6.080;2023-06-24T09:47:45;1.70;;;1.60;;
24143;SDS011;12307;50.828;6.080;2023-06-24T09:50:10;1.42;;;1.33;;
24143;SDS011;12307;50.828;6.080;2023-06-24T09:52:36;1.60;;;1.50;;
24143;SDS011;12307;50.828;6.080;2023-06-24T09:55:03;1.67;;;1.58;;
24143;SDS011;12307;50.828;6.080;2023-06-24T09:57:29;1.60;;;1.50;;
24143;SDS011;12307;50.828;6.080;2023-06-24T09:59:57;1.92;;;1.83;;
24143;SDS011;12307;50.828;6.080;2023-06-24T10:02:25;1.63;;;1.52;;
24143;SDS011;12307;50.828;6.080;2023-06-24T10:04:52;1.60;;;1.50;;
24143;SDS011;12307;50.828;6.080;2023-06-24T10:07:19;1.77;;;1.67;;
24143;SDS011;12307;50.828;6.080;2023-06-24T10:09:45;1.75;;;1.65;;
24143;SDS011;12307;50.828;6.080;2023-06-24T10:12:10;1.67;;;1.58;;
24143;SDS011;12307;50.828;6.080;2023-06-24T10:14:36;1.55;;;1.45;;
24143;SDS011;12307;50.828;6.080;2023-06-24T10:17:03;1.85;;;1.75;;
24143;SDS011;12307;50.828;6.080;2023-06-24T10:19:30;1.48;;;1.38;;
24143;SDS011;12307;50.828;6.080;2023-06-24T10:22:03;1.60;;;1.50;;
24143;SDS011;12307;50.828;6.080;2023-06-24T10:24:33;1.83;;;1.73;;
24143;SDS011;12307;50.828;6.080;2023-06-24T10:27:04;1.60;;;1.50;;
24143;SDS011;12307;50.828;6.080;2023-06-24T10:29:31;1.70;;;1.60;;
24143;SDS011;12307;50.828;6.080;2023-06-24T10:32:00;1.65;;;1.55;;
24143;SDS011;12307;50.828;6.080;2023-06-24T10:34:32;1.50;;;1.40;;
24143;SDS011;12307;50.828;6.080;2023-06-24T10:36:59;1.60;;;1.50;;
24143;SDS011;12307;50.828;6.080;2023-06-24T10:39:34;1.75;;;1.65;;
24143;SDS011;12307;50.828;6.080;2023-06-24T10:44:53;1.65;;;1.55;;
24143;SDS011;12307;50.828;6.080;2023-06-24T10:47:21;1.60;;;1.50;;
24143;SDS011;12307;50.828;6.080;2023-06-24T10:49:48;1.60;;;1.50;;
24143;SDS011;12307;50.828;6.080;2023-06-24T10:52:14;1.30;;;1.20;;
24143;SDS011;12307;50.828;6.080;2023-06-24T10:54:44;1.55;;;1.45;;
24143;SDS011;12307;50.828;6.080;2023-06-24T10:57:10;1.60;;;1.50;;
24143;SDS011;12307;50.828;6.080;2023-06-24T10:59:39;1.52;;;1.42;;
24143;SDS011;12307;50.828;6.080;2023-06-24T11:02:05;1.63;;;1.52;;
24143;SDS011;12307;50.828;6.080;2023-06-24T11:04:30;1.50;;;1.40;;
24143;SDS011;12307;50.828;6.080;2023-06-24T11:06:58;1.45;;;1.35;;
24143;SDS011;12307;50.828;6.080;2023-06-24T11:09:23;1.38;;;1.27;;
24143;SDS011;12307;50.828;6.080;2023-06-24T11:11:49;1.60;;;1.50;;
24143;SDS011;12307;50.828;6.080;2023-06-24T11:14:15;1.50;;;1.40;;
24143;SDS011;12307;50.828;6.080;2023-06-24T11:16:41;1.30;;;1.20;;
24143;SDS011;12307;50.828;6.080;2023-06-24T11:19:07;1.60;;;1.50;;
24143;SDS011;12307;50.828;6.080;2023-06-24T11:21:33;1.58;;;1.48;;
24143;SDS011;12307;50.828;6.080;2023-06-24T11:24:01;1.63;;;1.52;;
24143;SDS011;12307;50.828;6.080;2023-06-24T11:26:27;1.58;;;1.48;;
24143;SDS011;12307;50.828;6.080;2023-06-24T11:28:53;1.50;;;1.40;;
24143;SDS011;12307;50.828;6.080;2023-06-24T11:31:18;1.48;;;1.38;;
24143;SDS011;12307;50.828;6.080;2023-06-24T11:33:49;1.60;;;1.50;;
24143;SDS011;12307;50.828;6.080;2023-06-24T11:36:16;1.48;;;1.38;;
24143;SDS011;12307;50.828;6.080;2023-06-24T11:38:42;1.50;;;1.40;;
24143;SDS011;12307;50.828;6.080;2023-06-24T11:41:09;1.55;;;1.45;;
24143;SDS011;12307;50.828;6.080;2023-06-24T11:43:35;1.60;;;1.50;;
24143;SDS011;12307;50.828;6.080;2023-06-24T11:46:00;1.58;;;1.48;;
24143;SDS011;12307;50.828;6.080;2023-06-24T11:48:27;1.50;;;1.30;;
24143;SDS011;12307;50.828;6.080;2023-06-24T11:50:53;1.60;;;1.50;;
24143;SDS011;12307;50.828;6.080;2023-06-24T11:53:22;1.52;;;1.42;;
24143;SDS011;12307;50.828;6.080;2023-06-24T11:55:55;1.48;;;1.38;;
24143;SDS011;12307;50.828;6.080;2023-06-24T11:58:22;1.40;;;1.30;;
24143;SDS011;12307;50.828;6.080;2023-06-24T12:00:48;1.40;;;1.30;;
24143;SDS011;12307;50.828;6.080;2023-06-24T12:03:15;1.45;;;1.35;;
24143;SDS011;12307;50.828;6.080;2023-06-24T12:05:41;1.70;;;1.60;;
24143;SDS011;12307;50.828;6.080;2023-06-24T12:08:12;1.50;;;1.40;;
24143;SDS011;12307;50.828;6.080;2023-06-24T12:10:40;1.20;;;1.10;;
24143;SDS011;12307;50.828;6.080;2023-06-24T12:13:06;1.65;;;1.55;;
24143;SDS011;12307;50.828;6.080;2023-06-24T12:15:34;1.65;;;1.55;;
24143;SDS011;12307;50.828;6.080;2023-06-24T12:18:01;1.60;;;1.50;;
24143;SDS011;12307;50.828;6.080;2023-06-24T12:20:27;1.42;;;1.33;;
24143;SDS011;12307;50.828;6.080;2023-06-24T12:22:54;1.60;;;1.50;;
24143;SDS011;12307;50.828;6.080;2023-06-24T12:25:20;1.83;;;1.33;;
24143;SDS011;12307;50.828;6.080;2023-06-24T12:27:46;1.42;;;1.33;;
24143;SDS011;12307;50.828;6.080;2023-06-24T12:30:12;1.40;;;1.30;;
24143;SDS011;12307;50.828;6.080;2023-06-24T12:32:40;1.33;;;1.23;;
24143;SDS011;12307;50.828;6.080;2023-06-24T12:35:06;1.60;;;1.50;;
24143;SDS011;12307;50.828;6.080;2023-06-24T12:37:34;1.40;;;1.30;;
24143;SDS011;12307;50.828;6.080;2023-06-24T12:40:00;1.50;;;1.40;;
24143;SDS011;12307;50.828;6.080;2023-06-24T12:42:26;1.40;;;1.30;;
24143;SDS011;12307;50.828;6.080;2023-06-24T12:44:52;1.60;;;1.50;;
24143;SDS011;12307;50.828;6.080;2023-06-24T12:47:18;1.42;;;1.33;;
24143;SDS011;12307;50.828;6.080;2023-06-24T12:49:45;1.38;;;1.27;;
24143;SDS011;12307;50.828;6.080;2023-06-24T12:52:12;1.30;;;1.20;;
24143;SDS011;12307;50.828;6.080;2023-06-24T12:54:38;1.48;;;1.38;;
24143;SDS011;12307;50.828;6.080;2023-06-24T12:57:04;1.48;;;1.38;;
24143;SDS011;12307;50.828;6.080;2023-06-24T12:59:30;1.60;;;1.50;;
24143;SDS011;12307;50.828;6.080;2023-06-24T13:01:56;1.35;;;1.25;;
24143;SDS011;12307;50.828;6.080;2023-06-24T13:04:21;1.65;;;1.40;;
24143;SDS011;12307;50.828;6.080;2023-06-24T13:06:50;1.60;;;1.50;;
24143;SDS011;12307;50.828;6.080;2023-06-24T13:09:16;1.50;;;1.40;;
24143;SDS011;12307;50.828;6.080;2023-06-24T13:11:42;1.63;;;1.52;;
24143;SDS011;12307;50.828;6.080;2023-06-24T13:14:08;1.52;;;1.42;;
24143;SDS011;12307;50.828;6.080;2023-06-24T13:16:34;1.60;;;1.50;;
24143;SDS011;12307;50.828;6.080;2023-06-24T13:19:01;1.70;;;1.60;;
24143;SDS011;12307;50.828;6.080;2023-06-24T13:21:26;1.70;;;1.60;;
24143;SDS011;12307;50.828;6.080;2023-06-24T13:23:53;1.60;;;1.50;;
24143;SDS011;12307;50.828;6.080;2023-06-24T13:26:19;1.40;;;1.30;;
24143;SDS011;12307;50.828;6.080;2023-06-24T13:28:45;1.60;;;1.50;;
24143;SDS011;12307;50.828;6.080;2023-06-24T13:31:11;1.30;;;1.20;;
24143;SDS011;12307;50.828;6.080;2023-06-24T13:33:36;1.60;;;1.50;;
24143;SDS011;12307;50.828;6.080;2023-06-24T13:36:03;1.60;;;1.50;;
24143;SDS011;12307;50.828;6.080;2023-06-24T13:38:30;1.35;;;1.25;;
24143;SDS011;12307;50.828;6.080;2023-06-24T13:40:57;1.50;;;1.40;;
24143;SDS011;12307;50.828;6.080;2023-06-24T13:43:22;1.50;;;1.40;;
24143;SDS011;12307;50.828;6.080;2023-06-24T13:45:48;1.48;;;1.38;;
24143;SDS011;12307;50.828;6.080;2023-06-24T13:48:14;1.70;;;1.60;;
24143;SDS011;12307;50.828;6.080;2023-06-24T13:50:39;1.50;;;1.40;;
24143;SDS011;12307;50.828;6.080;2023-06-24T13:53:05;1.63;;;1.52;;
24143;SDS011;12307;50.828;6.080;2023-06-24T13:55:31;1.42;;;1.33;;
24143;SDS011;12307;50.828;6.080;2023-06-24T13:57:58;1.48;;;1.38;;
24143;SDS011;12307;50.828;6.080;2023-06-24T14:00:24;1.65;;;1.55;;
24143;SDS011;12307;50.828;6.080;2023-06-24T14:02:50;1.60;;;1.50;;
24143;SDS011;12307;50.828;6.080;2023-06-24T14:05:17;1.60;;;1.50;;
24143;SDS011;12307;50.828;6.080;2023-06-24T14:07:43;1.45;;;1.35;;
24143;SDS011;12307;50.828;6.080;2023-06-24T14:10:08;1.60;;;1.50;;
24143;SDS011;12307;50.828;6.080;2023-06-24T14:12:35;1.50;;;1.40;;
24143;SDS011;12307;50.828;6.080;2023-06-24T14:15:02;1.55;;;1.45;;
24143;SDS011;12307;50.828;6.080;2023-06-24T14:17:28;1.58;;;1.48;;
24143;SDS011;12307;50.828;6.080;2023-06-24T14:19:54;1.80;;;1.70;;
24143;SDS011;12307;50.828;6.080;2023-06-24T14:22:19;1.70;;;1.60;;
24143;SDS011;12307;50.828;6.080;2023-06-24T14:24:47;1.50;;;1.40;;
24143;SDS011;12307;50.828;6.080;2023-06-24T14:27:13;1.70;;;1.60;;
24143;SDS011;12307;50.828;6.080;2023-06-24T14:29:38;1.80;;;1.70;;
24143;SDS011;12307;50.828;6.080;2023-06-24T14:32:06;1.60;;;1.50;;
24143;SDS011;12307;50.828;6.080;2023-06-24T14:34:32;1.67;;;1.58;;
24143;SDS011;12307;50.828;6.080;2023-06-24T14:36:58;1.60;;;1.50;;
24143;SDS011;12307;50.828;6.080;2023-06-24T14:39:23;1.50;;;1.40;;
24143;SDS011;12307;50.828;6.080;2023-06-24T14:41:49;1.50;;;1.40;;
24143;SDS011;12307;50.828;6.080;2023-06-24T14:44:15;1.60;;;1.50;;
24143;SDS011;12307;50.828;6.080;2023-06-24T14:46:40;1.80;;;1.70;;
24143;SDS011;12307;50.828;6.080;2023-06-24T14:49:07;1.52;;;1.42;;